Time;durP1;ratioP1;P1;durP2;ratioP2;P2;SDS_P1;SDS_P2;PMS_P1;PMS_P2;Temp;Humidity;BMP_temperature;BMP_pressure;BME280_temperature;BME280_humidity;BME280_pressure;Samples;Min_cycle;Max_cycle;Signal;HPM_P1;HPM_P2
2024/04/06 00:00:45;;;;;;;;;;;12.90;99.90;;;;;;8424001;28;20010;-71
2024/04/06 00:04:46;;;;;;;;;;;12.90;99.90;;;;;;8424462;28;19975;-71
2024/04/06 00:08:47;;;;;;;;;;;12.80;99.90;;;;;;8435320;28;19928;-71
2024/04/06 00:12:48;;;;;;;;;;;12.70;99.90;;;;;;8424590;28;20466;-71
2024/04/06 00:16:49;;;;;;;;;;;12.70;99.90;;;;;;8424528;28;20561;-71
2024/04/06 00:20:50;;;;;;;;;;;12.70;99.90;;;;;;8421949;28;19924;-71
2024/04/06 00:24:50;;;;;;;;;;;12.60;99.90;;;;;;8434254;28;20019;-71
2024/04/06 00:28:51;;;;;;;;;;;12.60;99.90;;;;;;8450552;28;20007;-71
2024/04/06 00:32:52;;;;;;;;;;;12.60;99.90;;;;;;8415241;28;19924;-71
2024/04/06 00:36:56;;;;;;;;;;;12.60;99.90;;;;;;8424884;28;20014;-71
2024/04/06 00:41:00;;;;;;;;;;;12.60;99.90;;;;;;8431905;28;20003;-71
2024/04/06 00:45:02;;;;;;;;;;;12.60;99.90;;;;;;8454063;27;20022;-71
2024/04/06 00:49:03;;;;;;;;;;;12.60;99.90;;;;;;8443532;28;20316;-71
2024/04/06 00:53:04;;;;;;;;;;;12.60;99.90;;;;;;8446854;28;20010;-71
2024/04/06 00:57:08;;;;;;;;;;;12.60;99.90;;;;;;8406653;28;20002;-71
2024/04/06 01:01:08;;;;;;;;;;;12.60;99.90;;;;;;8429396;28;20463;-71
2024/04/06 01:05:09;;;;;;;;;;;12.60;99.90;;;;;;8428085;28;20325;-71
2024/04/06 01:09:44;;;;;;;;;;;12.60;99.90;;;;;;8423374;28;19971;-71
2024/04/06 01:13:45;;;;;;;;;;;12.60;99.90;;;;;;8403444;28;20450;-71
2024/04/06 01:17:46;;;;;;;;;;;12.60;99.90;;;;;;8422666;28;20372;-71
2024/04/06 01:21:47;;;;;;;;;;;12.60;99.90;;;;;;8433689;28;20294;-71
2024/04/06 01:25:47;;;;;;;;;;;12.60;99.90;;;;;;8420016;28;19924;-71
2024/04/06 01:29:48;;;;;;;;;;;12.60;99.90;;;;;;8423803;28;20244;-71
2024/04/06 01:33:49;;;;;;;;;;;12.60;99.90;;;;;;8426419;28;19924;-71
2024/04/06 01:37:50;;;;;;;;;;;12.70;99.90;;;;;;8397469;28;20022;-71
2024/04/06 01:41:51;;;;;;;;;;;12.70;99.90;;;;;;8413307;28;20392;-71
2024/04/06 01:45:52;;;;;;;;;;;12.70;99.90;;;;;;8427661;28;19928;-71
2024/04/06 01:49:52;;;;;;;;;;;12.80;99.90;;;;;;8414304;28;19969;-71
2024/04/06 01:53:53;;;;;;;;;;;12.90;99.90;;;;;;8438527;28;20383;-71
2024/04/06 01:57:54;;;;;;;;;;;12.90;99.90;;;;;;8428508;28;19935;-71
2024/04/06 02:01:55;;;;;;;;;;;13.00;99.90;;;;;;8429821;28;21108;-71
2024/04/06 02:05:57;;;;;;;;;;;13.00;99.90;;;;;;8440887;28;20653;-71
2024/04/06 02:09:57;;;;;;;;;;;13.10;99.90;;;;;;8437136;28;20441;-71
2024/04/06 02:13:58;;;;;;;;;;;13.10;99.90;;;;;;8435246;28;20409;-71
2024/04/06 02:18:00;;;;;;;;;;;13.10;99.90;;;;;;8408727;28;20016;-71
2024/04/06 02:22:01;;;;;;;;;;;13.00;99.90;;;;;;8411311;28;20485;-71
2024/04/06 02:26:02;;;;;;;;;;;13.00;99.90;;;;;;8423276;28;20288;-71
2024/04/06 02:30:04;;;;;;;;;;;13.10;99.90;;;;;;8426970;28;20015;-71
2024/04/06 02:34:05;;;;;;;;;;;13.20;99.90;;;;;;8446502;28;20002;-71
2024/04/06 02:38:06;;;;;;;;;;;13.20;99.90;;;;;;8423851;28;20328;-71
2024/04/06 02:42:07;;;;;;;;;;;13.30;99.90;;;;;;8413258;28;20459;-71
2024/04/06 02:46:08;;;;;;;;;;;13.30;99.90;;;;;;8440670;27;20394;-71
2024/04/06 02:50:10;;;;;;;;;;;13.30;99.90;;;;;;8410507;28;19924;-71
2024/04/06 02:54:42;;;;;;;;;;;13.40;99.90;;;;;;8417986;28;20102;-71
2024/04/06 02:58:43;;;;;;;;;;;13.40;99.90;;;;;;8412468;28;20018;-71
2024/04/06 03:02:43;;;;;;;;;;;13.50;99.90;;;;;;8435724;28;19985;-71
2024/04/06 03:06:44;;;;;;;;;;;13.50;99.90;;;;;;8427970;28;19924;-71
2024/04/06 03:10:45;;;;;;;;;;;13.50;99.90;;;;;;8433902;28;19924;-71
2024/04/06 03:14:46;;;;;;;;;;;13.50;99.90;;;;;;8447662;28;20274;-71
2024/04/06 03:18:47;;;;;;;;;;;13.50;99.90;;;;;;8417215;28;19931;-71
2024/04/06 03:22:58;;;;;;;;;;;13.50;99.90;;;;;;8453840;27;20011;-71
2024/04/06 03:26:59;;;;;;;;;;;13.50;99.90;;;;;;8431429;28;19924;-71
2024/04/06 03:31:00;;;;;;;;;;;13.50;99.90;;;;;;8420957;28;19931;-71
2024/04/06 03:35:01;;;;;;;;;;;13.50;99.90;;;;;;8425324;28;19923;-71
2024/04/06 03:39:03;;;;;;;;;;;13.50;99.90;;;;;;8442493;28;20388;-71
2024/04/06 03:43:05;;;;;;;;;;;13.50;99.90;;;;;;8412703;28;20006;-71
2024/04/06 03:47:05;;;;;;;;;;;13.50;99.90;;;;;;8436343;28;20019;-71
2024/04/06 03:56:10;;;;;;;;;;;13.40;99.90;;;;;;8420222;28;20325;-71
2024/04/06 04:00:13;;;;;;;;;;;13.40;99.90;;;;;;8434572;28;20007;-71
2024/04/06 04:04:14;;;;;;;;;;;13.40;99.90;;;;;;8450351;27;20011;-71
2024/04/06 04:08:15;;;;;;;;;;;13.30;99.90;;;;;;8424413;28;20014;-71
2024/04/06 04:12:17;;;;;;;;;;;13.30;99.90;;;;;;8408281;28;19931;-71
2024/04/06 04:16:17;;;;;;;;;;;13.30;99.90;;;;;;8410020;28;20007;-71
2024/04/06 04:20:18;;;;;;;;;;;13.20;99.90;;;;;;8423833;28;19939;-71
2024/04/06 04:24:19;;;;;;;;;;;13.20;99.90;;;;;;8412969;28;20367;-71
2024/04/06 04:28:20;;;;;;;;;;;13.20;99.90;;;;;;8426530;28;19924;-71
2024/04/06 04:37:24;;;;;;;;;;;13.10;99.90;;;;;;8435505;28;19958;-71
2024/04/06 04:41:25;;;;;;;;;;;13.10;99.90;;;;;;8393307;28;19928;-71
2024/04/06 04:45:26;;;;;;;;;;;13.10;99.90;;;;;;8400067;28;19924;-71
2024/04/06 04:49:27;;;;;;;;;;;13.10;99.90;;;;;;8408107;28;20439;-71
2024/04/06 04:53:27;;;;;;;;;;;13.00;99.90;;;;;;8435406;27;19924;-71
2024/04/06 04:57:29;;;;;;;;;;;13.00;99.90;;;;;;8380452;28;19924;-71
2024/04/06 05:01:29;;;;;;;;;;;13.00;99.90;;;;;;8379076;28;19999;-71
2024/04/06 05:05:30;;;;;;;;;;;13.00;99.90;;;;;;8428649;27;19935;-71
2024/04/06 05:09:31;;;;;;;;;;;13.00;99.90;;;;;;8391467;28;19975;-71
2024/04/06 05:13:32;;;;;;;;;;;13.00;99.90;;;;;;8390424;28;19972;-71
2024/04/06 05:17:34;;;;;;;;;;;13.00;99.90;;;;;;8394680;28;19931;-71
2024/04/06 05:21:35;;;;;;;;;;;13.00;99.90;;;;;;8409042;28;20444;-71
2024/04/06 05:25:37;;;;;;;;;;;13.00;99.90;;;;;;8401249;28;19924;-71
2024/04/06 05:29:53;;;;;;;;;;;13.00;99.90;;;;;;8416191;28;20011;-71
2024/04/06 05:33:54;;;;;;;;;;;13.00;99.90;;;;;;8457726;27;19998;-71
2024/04/06 05:37:54;;;;;;;;;;;13.10;99.90;;;;;;8434900;28;19956;-71
2024/04/06 05:41:55;;;;;;;;;;;13.10;99.90;;;;;;8402545;28;19985;-71
2024/04/06 05:46:03;;;;;;;;;;;13.10;99.90;;;;;;8413139;28;19970;-71
2024/04/06 05:50:05;;;;;;;;;;;13.10;99.90;;;;;;8419767;28;19932;-71
2024/04/06 05:54:05;;;;;;;;;;;13.20;99.90;;;;;;8420242;28;19930;-71
2024/04/06 05:58:07;;;;;;;;;;;13.20;99.90;;;;;;8466593;27;19931;-71
2024/04/06 06:02:26;;;;;;;;;;;13.20;99.90;;;;;;8461039;27;20014;-71
2024/04/06 06:06:27;;;;;;;;;;;13.30;99.90;;;;;;8421154;28;19924;-71
2024/04/06 06:10:28;;;;;;;;;;;13.40;99.90;;;;;;8423818;28;19955;-71
2024/04/06 06:14:29;;;;;;;;;;;13.50;99.90;;;;;;8451132;28;19924;-71
2024/04/06 06:18:30;;;;;;;;;;;13.50;99.90;;;;;;8448429;28;20426;-71
2024/04/06 06:22:31;;;;;;;;;;;13.60;99.90;;;;;;8463805;27;20374;-71
2024/04/06 06:26:31;;;;;;;;;;;13.80;99.90;;;;;;8428645;28;20229;-71
2024/04/06 06:30:32;;;;;;;;;;;13.90;99.90;;;;;;8432964;28;19924;-71
2024/04/06 06:34:33;;;;;;;;;;;14.10;99.90;;;;;;8461401;28;20010;-72
2024/04/06 06:38:34;;;;;;;;;;;14.20;99.90;;;;;;8458055;28;20359;-71
2024/04/06 06:42:35;;;;;;;;;;;14.30;99.90;;;;;;8455913;27;19924;-72
2024/04/06 06:51:45;;;;;;;;;;;14.50;99.90;;;;;;8430301;28;19960;-71
2024/04/06 06:55:46;;;;;;;;;;;14.70;99.90;;;;;;8416537;28;19924;-71
2024/04/06 06:59:47;;;;;;;;;;;14.80;99.90;;;;;;8433287;28;19967;-71
2024/04/06 07:08:51;;;;;;;;;;;15.20;99.90;;;;;;8427060;28;19966;-72
2024/04/06 07:12:52;;;;;;;;;;;15.30;99.90;;;;;;8409008;28;19924;-72
2024/04/06 07:16:52;;;;;;;;;;;15.50;99.90;;;;;;8452203;28;19993;-72
2024/04/06 07:20:53;;;;;;;;;;;15.60;99.90;;;;;;8450220;28;20044;-72
2024/04/06 07:24:54;;;;;;;;;;;15.80;99.90;;;;;;8428802;28;19934;-72
2024/04/06 07:29:01;;;;;;;;;;;15.90;99.90;;;;;;8409255;28;19953;-72
2024/04/06 07:33:02;;;;;;;;;;;16.10;99.90;;;;;;8422990;28;20011;-71
2024/04/06 07:37:04;;;;;;;;;;;16.20;99.90;;;;;;8437961;28;20019;-71
2024/04/06 07:41:05;;;;;;;;;;;16.30;99.90;;;;;;8402401;28;20015;-72
2024/04/06 07:45:05;;;;;;;;;;;16.40;99.90;;;;;;8421109;27;19930;-71
2024/04/06 07:49:06;;;;;;;;;;;16.50;99.90;;;;;;8388663;28;19924;-72
2024/04/06 07:53:08;;;;;;;;;;;16.60;99.90;;;;;;8395830;28;21371;-72
2024/04/06 07:57:08;;;;;;;;;;;16.80;99.90;;;;;;8396331;28;20294;-72
2024/04/06 08:01:09;;;;;;;;;;;16.90;99.90;;;;;;8393622;28;19924;-71
2024/04/06 08:05:11;;;;;;;;;;;17.10;99.90;;;;;;8422739;27;19971;-71
2024/04/06 08:09:12;;;;;;;;;;;17.30;99.90;;;;;;8413476;27;19973;-71
2024/04/06 08:13:13;;;;;;;;;;;17.40;99.90;;;;;;8390431;28;20027;-72
2024/04/06 08:17:15;;;;;;;;;;;17.50;99.90;;;;;;8396581;28;19935;-71
2024/04/06 08:21:16;;;;;;;;;;;17.60;99.90;;;;;;8427284;27;19982;-71
2024/04/06 08:25:17;;;;;;;;;;;17.70;99.90;;;;;;8427227;27;20011;-71
2024/04/06 08:29:18;;;;;;;;;;;17.90;99.90;;;;;;8388311;28;19982;-71
2024/04/06 08:33:19;;;;;;;;;;;18.00;99.90;;;;;;8429371;27;20486;-71
2024/04/06 08:37:19;;;;;;;;;;;18.20;99.90;;;;;;8392048;28;19939;-71
2024/04/06 08:41:22;;;;;;;;;;;18.40;99.90;;;;;;8404400;28;19929;-71
2024/04/06 08:45:25;;;;;;;;;;;18.50;99.90;;;;;;8431609;27;19924;-71
2024/04/06 08:49:27;;;;;;;;;;;18.80;99.90;;;;;;8406457;28;20350;-70
2024/04/06 08:53:28;;;;;;;;;;;19.10;99.90;;;;;;8426277;27;19932;-71
2024/04/06 08:57:39;;;;;;;;;;;19.30;99.90;;;;;;8390053;28;19938;-71
2024/04/06 09:01:40;;;;;;;;;;;19.40;99.90;;;;;;8387120;28;19931;-71
2024/04/06 09:05:41;;;;;;;;;;;19.50;99.90;;;;;;8378996;28;19936;-71
2024/04/06 09:09:43;;;;;;;;;;;19.70;99.90;;;;;;8385388;28;19938;-71
2024/04/06 09:13:44;;;;;;;;;;;19.80;99.90;;;;;;8388058;28;19928;-71
2024/04/06 09:17:45;;;;;;;;;;;19.80;99.90;;;;;;8386306;28;19960;-71
2024/04/06 09:21:46;;;;;;;;;;;19.70;99.90;;;;;;8383232;28;20291;-71
2024/04/06 09:25:56;;;;;;;;;;;19.80;99.90;;;;;;8387505;28;19930;-71
2024/04/06 09:29:56;;;;;;;;;;;19.90;99.90;;;;;;8384372;28;19932;-72
2024/04/06 09:33:58;;;;;;;;;;;20.10;99.90;;;;;;8388094;28;19935;-71
2024/04/06 09:37:59;;;;;;;;;;;20.20;99.90;;;;;;8390860;28;19928;-71
2024/04/06 09:42:03;;;;;;;;;;;20.30;99.90;;;;;;8387895;28;20027;-71
2024/04/06 09:46:04;;;;;;;;;;;20.30;99.90;;;;;;8386476;28;19931;-71
2024/04/06 09:50:05;;;;;;;;;;;20.40;99.90;;;;;;8391359;28;19931;-71
2024/04/06 09:54:06;;;;;;;;;;;20.40;99.90;;;;;;8385095;28;20294;-72
2024/04/06 09:58:08;;;;;;;;;;;20.50;99.90;;;;;;8386342;28;19924;-71
2024/04/06 10:02:09;;;;;;;;;;;20.50;99.90;;;;;;8414025;27;19929;-71
2024/04/06 10:06:10;;;;;;;;;;;20.60;99.90;;;;;;8380815;28;19933;-71
2024/04/06 10:10:11;;;;;;;;;;;20.70;99.90;;;;;;8425270;27;20371;-71
2024/04/06 10:14:12;;;;;;;;;;;21.00;99.90;;;;;;8395442;28;20343;-69
2024/04/06 10:18:15;;;;;;;;;;;21.30;99.90;;;;;;8401808;28;20294;-69
2024/04/06 10:22:23;;;;;;;;;;;21.40;99.90;;;;;;8429668;27;19928;-70
2024/04/06 10:26:24;;;;;;;;;;;21.50;99.90;;;;;;8411056;28;19928;-69
2024/04/06 10:30:25;;;;;;;;;;;21.50;99.90;;;;;;8388849;28;20078;-69
2024/04/06 10:34:25;;;;;;;;;;;21.50;99.90;;;;;;8388189;28;19932;-69
2024/04/06 10:38:27;;;;;;;;;;;21.50;99.90;;;;;;8405018;28;19924;-69
2024/04/06 10:42:28;;;;;;;;;;;21.50;99.90;;;;;;8395750;28;20309;-69
2024/04/06 10:46:28;;;;;;;;;;;21.60;99.90;;;;;;8408187;28;20327;-69
2024/04/06 10:50:30;;;;;;;;;;;21.90;99.90;;;;;;8395276;28;19924;-69
2024/04/06 10:54:31;;;;;;;;;;;22.20;99.90;;;;;;8404065;28;19928;-70
2024/04/06 10:58:32;;;;;;;;;;;22.50;99.90;;;;;;8387915;28;19925;-69
2024/04/06 11:02:33;;;;;;;;;;;22.70;99.90;;;;;;8391819;28;20012;-69
2024/04/06 11:06:34;;;;;;;;;;;22.90;99.90;;;;;;8393980;28;19931;-69
2024/04/06 11:10:37;;;;;;;;;;;23.10;99.90;;;;;;8394245;28;19976;-69
2024/04/06 11:14:40;;;;;;;;;;;23.30;99.90;;;;;;8388609;28;19947;-70
2024/04/06 11:18:41;;;;;;;;;;;23.40;99.90;;;;;;8407919;28;19925;-69
2024/04/06 11:22:42;;;;;;;;;;;23.70;99.90;;;;;;8381821;28;19924;-70
2024/04/06 11:26:43;;;;;;;;;;;24.10;99.90;;;;;;8428382;27;19973;-70
2024/04/06 11:30:44;;;;;;;;;;;24.40;99.90;;;;;;8422680;27;19925;-70
2024/04/06 11:34:45;;;;;;;;;;;24.80;99.90;;;;;;8388016;28;19931;-69
2024/04/06 11:38:46;;;;;;;;;;;24.90;99.90;;;;;;8405165;28;19924;-70
2024/04/06 11:42:47;;;;;;;;;;;25.10;99.90;;;;;;8422715;27;19978;-70
2024/04/06 11:57:02;;;;;;;;;;;25.00;99.90;;;;;;8390354;28;20012;-70
2024/04/06 12:01:03;;;;;;;;;;;25.20;99.90;;;;;;8402222;28;19932;-70
2024/04/06 12:05:03;;;;;;;;;;;25.30;99.90;;;;;;8386824;28;20684;-70
2024/04/06 12:09:08;;;;;;;;;;;25.50;99.90;;;;;;8387952;28;19967;-69
2024/04/06 12:13:15;;;;;;;;;;;25.70;99.90;;;;;;8376281;28;19931;-70
2024/04/06 12:17:26;;;;;;;;;;;25.90;99.90;;;;;;8419177;27;19924;-70
2024/04/06 12:21:27;;;;;;;;;;;25.90;99.90;;;;;;8388365;28;19973;-70
2024/04/06 12:25:28;;;;;;;;;;;25.70;99.90;;;;;;8385197;28;19924;-70
2024/04/06 12:29:28;;;;;;;;;;;25.40;99.90;;;;;;8404578;28;19928;-70
2024/04/06 12:33:29;;;;;;;;;;;25.20;99.90;;;;;;8387537;28;20017;-70
2024/04/06 12:37:30;;;;;;;;;;;25.10;99.90;;;;;;8395356;28;20020;-70
2024/04/06 12:41:31;;;;;;;;;;;25.00;99.90;;;;;;8371224;28;19928;-70
2024/04/06 12:45:32;;;;;;;;;;;24.90;99.90;;;;;;8399678;28;19928;-70
2024/04/06 12:49:35;;;;;;;;;;;24.80;99.90;;;;;;8387020;28;20400;-70
2024/04/06 12:53:36;;;;;;;;;;;24.70;99.90;;;;;;8385370;28;19925;-70
2024/04/06 12:57:39;;;;;;;;;;;24.60;99.90;;;;;;8382666;28;20641;-70
2024/04/06 13:01:39;;;;;;;;;;;24.50;99.90;;;;;;8396257;28;19962;-70
2024/04/06 13:05:41;;;;;;;;;;;24.40;99.90;;;;;;8401745;28;19940;-70
2024/04/06 13:09:42;;;;;;;;;;;24.40;99.90;;;;;;8397344;28;19924;-70
2024/04/06 13:13:42;;;;;;;;;;;24.40;99.90;;;;;;8388270;28;19924;-70
2024/04/06 13:17:43;;;;;;;;;;;24.50;99.90;;;;;;8383784;28;19928;-70
2024/04/06 13:21:44;;;;;;;;;;;24.60;99.90;;;;;;8384762;28;19931;-70
2024/04/06 13:25:45;;;;;;;;;;;24.70;99.90;;;;;;8424803;27;19932;-70
2024/04/06 13:29:46;;;;;;;;;;;24.70;99.90;;;;;;8366493;28;20355;-70
2024/04/06 13:33:47;;;;;;;;;;;24.90;99.90;;;;;;8398804;28;20316;-70
2024/04/06 13:37:47;;;;;;;;;;;25.00;99.90;;;;;;8391188;28;20015;-70
2024/04/06 13:41:48;;;;;;;;;;;25.20;99.90;;;;;;8423905;27;19971;-70
2024/04/06 13:45:50;;;;;;;;;;;25.40;99.90;;;;;;8391498;28;19924;-70
2024/04/06 13:49:50;;;;;;;;;;;25.50;99.90;;;;;;8408977;28;19950;-70
2024/04/06 13:53:51;;;;;;;;;;;25.50;99.90;;;;;;8422978;27;20003;-70
2024/04/06 13:57:54;;;;;;;;;;;25.60;99.90;;;;;;8390282;28;19978;-70
2024/04/06 14:01:54;;;;;;;;;;;25.60;99.90;;;;;;8425204;27;19928;-70
2024/04/06 14:05:57;;;;;;;;;;;25.70;99.90;;;;;;8392078;28;19951;-70
2024/04/06 14:09:57;;;;;;;;;;;25.80;99.90;;;;;;8410301;27;20402;-70
2024/04/06 14:13:59;;;;;;;;;;;25.90;99.90;;;;;;8392091;28;23380;-70
2024/04/06 14:18:00;;;;;;;;;;;26.00;99.90;;;;;;8402271;28;20371;-70
2024/04/06 14:22:01;;;;;;;;;;;26.10;99.90;;;;;;8390266;28;20296;-70
2024/04/06 14:26:02;;;;;;;;;;;26.10;99.90;;;;;;8412163;28;19970;-70
2024/04/06 14:30:28;;;;;;;;;;;26.10;99.90;;;;;;8381718;28;19929;-71
2024/04/06 14:34:24;;;;;;;;;;;26.20;99.90;;;;;;8382388;28;19953;-71
2024/04/06 14:38:25;;;;;;;;;;;26.30;99.90;;;;;;8426299;27;19928;-70
2024/04/06 14:42:26;;;;;;;;;;;26.50;99.90;;;;;;8384851;28;20278;-70
2024/04/06 14:46:26;;;;;;;;;;;26.70;99.90;;;;;;8389014;28;20300;-70
2024/04/06 14:50:27;;;;;;;;;;;27.00;99.90;;;;;;8407231;28;19930;-70
2024/04/06 14:54:28;;;;;;;;;;;27.10;99.90;;;;;;8426647;27;20402;-70
2024/04/06 14:58:29;;;;;;;;;;;27.00;99.90;;;;;;8389411;28;20063;-71
2024/04/06 15:02:30;;;;;;;;;;;26.80;99.90;;;;;;8389657;28;19928;-71
2024/04/06 15:06:31;;;;;;;;;;;26.80;99.90;;;;;;8384652;28;19987;-71
2024/04/06 15:10:33;;;;;;;;;;;26.50;99.90;;;;;;8402602;27;20136;-70
2024/04/06 15:14:34;;;;;;;;;;;26.30;99.90;;;;;;8386375;28;19928;-70
2024/04/06 15:18:35;;;;;;;;;;;26.00;99.90;;;;;;8390871;28;19936;-71
2024/04/06 15:22:39;;;;;;;;;;;25.80;99.90;;;;;;8398942;28;20400;-71
2024/04/06 15:26:40;;;;;;;;;;;25.90;99.90;;;;;;8379029;28;20017;-70
2024/04/06 15:30:41;;;;;;;;;;;26.00;99.90;;;;;;8403770;28;19928;-70
2024/04/06 15:34:42;;;;;;;;;;;26.10;99.90;;;;;;8418659;27;19929;-70
2024/04/06 15:38:47;;;;;;;;;;;26.00;99.90;;;;;;8397579;28;20039;-71
2024/04/06 15:42:48;;;;;;;;;;;25.80;99.90;;;;;;8400865;28;20335;-71
2024/04/06 15:46:50;;;;;;;;;;;25.70;99.90;;;;;;8421892;27;19931;-70
2024/04/06 15:50:51;;;;;;;;;;;25.70;99.90;;;;;;8399314;28;19984;-71
2024/04/06 15:54:52;;;;;;;;;;;25.70;99.90;;;;;;8382614;28;19924;-70
2024/04/06 15:58:52;;;;;;;;;;;25.70;99.90;;;;;;8419680;27;19947;-70
2024/04/06 16:02:54;;;;;;;;;;;25.80;99.90;;;;;;8381107;28;20331;-70
2024/04/06 16:06:55;;;;;;;;;;;25.70;99.90;;;;;;8382905;28;19938;-70
2024/04/06 16:11:22;;;;;;;;;;;25.60;99.90;;;;;;8404557;28;19932;-70
2024/04/06 16:15:23;;;;;;;;;;;25.70;99.90;;;;;;8375136;28;19939;-71
2024/04/06 16:19:23;;;;;;;;;;;25.50;99.90;;;;;;8384253;28;19970;-70
2024/04/06 16:23:24;;;;;;;;;;;25.20;99.90;;;;;;8416039;28;19935;-71
2024/04/06 16:27:25;;;;;;;;;;;25.10;99.90;;;;;;8383817;28;19925;-70
2024/04/06 16:31:26;;;;;;;;;;;25.00;99.90;;;;;;8389313;28;19928;-71
2024/04/06 16:35:28;;;;;;;;;;;24.80;99.90;;;;;;8385446;28;19928;-70
2024/04/06 16:39:29;;;;;;;;;;;24.60;99.90;;;;;;8389753;28;19932;-70
2024/04/06 16:43:30;;;;;;;;;;;24.50;99.90;;;;;;8382981;28;19925;-70
2024/04/06 16:47:31;;;;;;;;;;;24.40;99.90;;;;;;8412061;27;20019;-70
2024/04/06 16:51:32;;;;;;;;;;;24.30;99.90;;;;;;8390636;28;19932;-70
2024/04/06 16:55:32;;;;;;;;;;;24.10;99.90;;;;;;8389579;28;19978;-70
2024/04/06 16:59:33;;;;;;;;;;;24.00;99.90;;;;;;8387507;28;19979;-70
2024/04/06 17:03:34;;;;;;;;;;;23.80;99.90;;;;;;8383235;28;19977;-70
2024/04/06 17:07:35;;;;;;;;;;;23.60;99.90;;;;;;8370251;28;19950;-70
2024/04/06 17:11:36;;;;;;;;;;;23.40;99.90;;;;;;8385997;28;19925;-70
2024/04/06 17:15:36;;;;;;;;;;;23.30;99.90;;;;;;8409987;28;19974;-70
2024/04/06 17:19:39;;;;;;;;;;;23.20;99.90;;;;;;8392951;28;19933;-70
2024/04/06 17:23:40;;;;;;;;;;;23.10;99.90;;;;;;8393156;28;19928;-71
2024/04/06 17:27:41;;;;;;;;;;;22.90;99.90;;;;;;8392269;28;19933;-70
2024/04/06 17:31:42;;;;;;;;;;;22.80;99.90;;;;;;8390529;28;19943;-70
2024/04/06 17:35:43;;;;;;;;;;;22.70;99.90;;;;;;8406988;28;20368;-70
2024/04/06 17:39:44;;;;;;;;;;;22.60;99.90;;;;;;8413500;27;19958;-70
2024/04/06 17:43:45;;;;;;;;;;;22.50;99.90;;;;;;8392064;28;20383;-70
2024/04/06 17:47:46;;;;;;;;;;;22.30;99.90;;;;;;8411521;28;20346;-70
2024/04/06 17:51:47;;;;;;;;;;;22.20;99.90;;;;;;8390084;28;19935;-70
2024/04/06 17:55:48;;;;;;;;;;;22.10;99.90;;;;;;8396766;28;20295;-71
2024/04/06 17:59:49;;;;;;;;;;;21.90;99.90;;;;;;8395089;28;19930;-70
2024/04/06 18:03:50;;;;;;;;;;;21.80;99.90;;;;;;8409502;28;19928;-71
2024/04/06 18:07:51;;;;;;;;;;;21.70;99.90;;;;;;8389481;28;19924;-70
2024/04/06 18:11:52;;;;;;;;;;;21.70;99.90;;;;;;8392253;28;20015;-70
2024/04/06 18:15:55;;;;;;;;;;;21.60;99.90;;;;;;8416267;28;19924;-70
2024/04/06 18:19:56;;;;;;;;;;;21.60;99.90;;;;;;8390391;28;19928;-70
2024/04/06 18:23:57;;;;;;;;;;;21.60;99.90;;;;;;8391752;28;20475;-70
2024/04/06 18:27:57;;;;;;;;;;;21.60;99.90;;;;;;8392075;28;20435;-70
2024/04/06 18:31:59;;;;;;;;;;;21.50;99.90;;;;;;8425782;28;19932;-70
2024/04/06 18:35:59;;;;;;;;;;;21.40;99.90;;;;;;8393879;28;19931;-70
2024/04/06 18:40:00;;;;;;;;;;;21.40;99.90;;;;;;8391414;28;20386;-70
2024/04/06 18:44:02;;;;;;;;;;;21.30;99.90;;;;;;8389914;28;20268;-70
2024/04/06 18:48:03;;;;;;;;;;;21.20;99.90;;;;;;8408864;27;19936;-70
2024/04/06 18:52:05;;;;;;;;;;;21.10;99.90;;;;;;8405465;28;19929;-70
2024/04/06 18:56:06;;;;;;;;;;;21.10;99.90;;;;;;8401540;28;19925;-70
2024/04/06 19:00:38;;;;;;;;;;;21.10;99.90;;;;;;8422843;27;19924;-69
2024/04/06 19:04:39;;;;;;;;;;;21.10;99.90;;;;;;8389266;28;20300;-70
2024/04/06 19:08:40;;;;;;;;;;;21.20;99.90;;;;;;8420488;27;19959;-70
2024/04/06 19:12:41;;;;;;;;;;;21.10;99.90;;;;;;8387409;28;20368;-70
2024/04/06 19:16:43;;;;;;;;;;;21.10;99.90;;;;;;8390398;28;19931;-70
2024/04/06 19:20:44;;;;;;;;;;;21.10;99.90;;;;;;8424212;27;20663;-70
2024/04/06 19:24:44;;;;;;;;;;;21.00;99.90;;;;;;8394319;28;19936;-70
2024/04/06 19:28:45;;;;;;;;;;;21.00;99.90;;;;;;8417722;27;19932;-70
2024/04/06 19:32:46;;;;;;;;;;;20.90;99.90;;;;;;8402289;28;19972;-69
2024/04/06 19:36:47;;;;;;;;;;;20.80;99.90;;;;;;8422156;27;19932;-69
2024/04/06 19:40:48;;;;;;;;;;;20.80;99.90;;;;;;8390748;28;19924;-70
2024/04/06 19:44:50;;;;;;;;;;;20.80;99.90;;;;;;8402165;28;20295;-70
2024/04/06 19:48:51;;;;;;;;;;;20.70;99.90;;;;;;8404343;28;19929;-70
2024/04/06 19:52:51;;;;;;;;;;;20.70;99.90;;;;;;8388514;28;19933;-70
2024/04/06 19:56:52;;;;;;;;;;;20.60;99.90;;;;;;8405773;28;23347;-70
2024/04/06 20:00:53;;;;;;;;;;;20.50;99.90;;;;;;8421839;27;20019;-69
2024/04/06 20:04:54;;;;;;;;;;;20.40;99.90;;;;;;8420388;28;20032;-70
2024/04/06 20:09:04;;;;;;;;;;;20.30;99.90;;;;;;8386022;28;19968;-70
2024/04/06 20:13:06;;;;;;;;;;;20.10;99.90;;;;;;8419954;27;19932;-69
2024/04/06 20:17:07;;;;;;;;;;;20.00;99.90;;;;;;8372834;28;20602;-70
2024/04/06 20:21:08;;;;;;;;;;;19.90;99.90;;;;;;8385243;28;20529;-70
2024/04/06 20:29:28;;;;;;;;;;;19.70;99.90;;;;;;8402831;28;19925;-70
2024/04/06 20:33:30;;;;;;;;;;;19.50;99.90;;;;;;8384947;28;19951;-70
2024/04/06 20:37:31;;;;;;;;;;;19.40;99.90;;;;;;8384649;28;19924;-70
2024/04/06 20:41:32;;;;;;;;;;;19.30;99.90;;;;;;8402288;28;19936;-70
2024/04/06 20:45:33;;;;;;;;;;;19.20;99.90;;;;;;8418208;27;19928;-70
2024/04/06 20:49:33;;;;;;;;;;;19.10;99.90;;;;;;8387706;28;19933;-70
2024/04/06 20:53:34;;;;;;;;;;;19.00;99.90;;;;;;8384393;28;20394;-69
2024/04/06 20:57:35;;;;;;;;;;;18.90;99.90;;;;;;8384693;28;20289;-70
2024/04/06 21:01:36;;;;;;;;;;;18.70;99.90;;;;;;8423311;27;19924;-70
2024/04/06 21:05:37;;;;;;;;;;;18.60;99.90;;;;;;8401521;28;20022;-70
2024/04/06 21:09:38;;;;;;;;;;;18.60;99.90;;;;;;8435553;27;19939;-70
2024/04/06 21:13:39;;;;;;;;;;;18.50;99.90;;;;;;8418604;28;19932;-70
2024/04/06 21:17:40;;;;;;;;;;;18.40;99.90;;;;;;8436657;28;19930;-70
2024/04/06 21:21:41;;;;;;;;;;;18.40;99.90;;;;;;8402884;28;19928;-70
2024/04/06 21:25:42;;;;;;;;;;;18.40;99.90;;;;;;8415576;28;19924;-70
2024/04/06 21:29:46;;;;;;;;;;;18.40;99.90;;;;;;8403879;28;19924;-70
2024/04/06 21:33:47;;;;;;;;;;;18.30;99.90;;;;;;8392656;28;20015;-70
2024/04/06 21:37:47;;;;;;;;;;;18.20;99.90;;;;;;8413587;28;19928;-70
2024/04/06 21:41:49;;;;;;;;;;;18.10;99.90;;;;;;8405107;28;19924;-70
2024/04/06 21:45:50;;;;;;;;;;;18.00;99.90;;;;;;8408165;28;19977;-70
2024/04/06 21:49:51;;;;;;;;;;;18.00;99.90;;;;;;8415705;28;19974;-70
2024/04/06 21:53:52;;;;;;;;;;;17.90;99.90;;;;;;8417865;28;19928;-70
2024/04/06 21:57:53;;;;;;;;;;;17.90;99.90;;;;;;8414502;28;19932;-70
2024/04/06 22:01:54;;;;;;;;;;;17.70;99.90;;;;;;8434261;28;19966;-70
2024/04/06 22:05:55;;;;;;;;;;;17.70;99.90;;;;;;8422708;28;20079;-70
2024/04/06 22:09:55;;;;;;;;;;;17.70;99.90;;;;;;8404065;28;19931;-70
2024/04/06 22:13:56;;;;;;;;;;;17.60;99.90;;;;;;8403740;28;20063;-70
2024/04/06 22:17:57;;;;;;;;;;;17.60;99.90;;;;;;8446340;27;19933;-69
2024/04/06 22:21:58;;;;;;;;;;;17.50;99.90;;;;;;8438545;28;20010;-69
2024/04/06 22:25:59;;;;;;;;;;;17.40;99.90;;;;;;8417480;28;19931;-70
2024/04/06 22:30:01;;;;;;;;;;;17.40;99.90;;;;;;8402139;28;19947;-69
2024/04/06 22:34:02;;;;;;;;;;;17.40;99.90;;;;;;8411039;28;20396;-70
2024/04/06 22:38:02;;;;;;;;;;;17.30;99.90;;;;;;8418510;28;19927;-70
2024/04/06 22:42:03;;;;;;;;;;;17.30;99.90;;;;;;8404272;28;19970;-70
2024/04/06 22:46:04;;;;;;;;;;;17.20;99.90;;;;;;8411064;28;19970;-70
2024/04/06 22:50:08;;;;;;;;;;;17.10;99.90;;;;;;8407165;28;20467;-70
2024/04/06 22:54:09;;;;;;;;;;;17.00;99.90;;;;;;8411052;28;20363;-70
2024/04/06 22:58:10;;;;;;;;;;;17.00;99.90;;;;;;8435647;27;19928;-70
2024/04/06 23:07:14;;;;;;;;;;;16.90;99.90;;;;;;8420191;28;19932;-70
2024/04/06 23:11:16;;;;;;;;;;;16.90;99.90;;;;;;8428457;28;19999;-70
2024/04/06 23:15:17;;;;;;;;;;;16.90;99.90;;;;;;8419050;28;19929;-70
2024/04/06 23:19:18;;;;;;;;;;;16.90;99.90;;;;;;8411045;28;20007;-70
2024/04/06 23:23:19;;;;;;;;;;;16.90;99.90;;;;;;8378170;28;20371;-70
2024/04/06 23:27:20;;;;;;;;;;;16.80;99.90;;;;;;8398492;28;19932;-70
2024/04/06 23:31:21;;;;;;;;;;;16.80;99.90;;;;;;8394320;28;19932;-70
2024/04/06 23:35:22;;;;;;;;;;;16.80;99.90;;;;;;8429077;27;19925;-71
2024/04/06 23:39:23;;;;;;;;;;;16.80;99.90;;;;;;8409771;28;19928;-72
2024/04/06 23:43:24;;;;;;;;;;;16.70;99.90;;;;;;8403865;28;20474;-72
2024/04/06 23:47:25;;;;;;;;;;;16.70;99.90;;;;;;8418854;28;20363;-72
2024/04/06 23:51:26;;;;;;;;;;;16.70;99.90;;;;;;8434798;28;19982;-72
2024/04/06 23:55:33;;;;;;;;;;;16.70;99.90;;;;;;8435939;27;19947;-71
2024/04/06 23:59:35;;;;;;;;;;;16.70;99.90;;;;;;8418136;28;19930;-72
